A- A+ FrançaisEnglishEspañol中国

Services sur Internet Soldes sur Internet Des idées de cadeaux Météo Météo aéro

La météo à : Autours de vous Tarbes-Lourdes-PyrénéesAlbertvilleBiarritz-Bayonne-Anglet Avignon Pujaut

manche à air

La météo aéronautique pour les pilotes, la préparation du vol avec les METAR (METeorological Aerodrome Report, message d'observation des conditions météorologiques pour l'aviation) et Les TAF (Terminal Aerodrome Forecast : message de prévision à court terme des conditions météorologiques pour l'aviation). Et les autres ressources comme les VAC (Visual Approch Chart) et les NOTAM (Notice To Airman) pour préprer les vols.

Aéroport Southampton (Royaume-Uni) / OACI EGHI/ IATA SOU

L'altitude de l'aéroport Southampton est de 13 m = 43 ft. Il est situé à proximité de Southampton (Royaume-Uni). La météo générale à 5 jours est disponible pour North Stoneham situé à 1 km.

METAR de l'aéroport Southampton - EGHI

EGHI 102150Z 23006KT 9999 FEW035 09/06 Q1008

Décodage du METAR de l'aéroport Southampton (GB)

METAR émis par EGHI le mardi 10 décembre 2019 à 21:50 heure TU. Attention ce METAR est obsolète car il a été émis il y a 2 heure et 7 minutes.

La visibilité est de supérieure à 10 km = supérieure à 6.2 sm.

La température est de 9°C = 48 °F et le point rosée est de 6°C = 43 °F . Ce qui correspond à 81% d'humidité relative.

Le QNH est de 1008 hPa = 29.77 inHg

Vent de 6 kt = 11 km/h, orienté à 230°.

Nuages : Quelques nuages à 3500 ft = 1070 mètres.

TAF de l'aéroport Southampton - EGHI

EGHI 102003Z 1021/1023 26013KT 9999 SCT040

EGHI 102003Z 1021/1023 26013KT 9999 nuages épars à 040

Aéroport à proximité de Southampton

Météo générale à 5 jours à North Stoneham (1 km)Aéroport Lee on Solent (19 km)Aéroport Middle Wallop (26 km)Aéroport Popham (28 km)Aéroport Thruxton (34 km)Aéroport Old Sarum (34 km)Aéroport Lasham (35 km)

Vue aérienne de l'aéroport Southampton

NOTAM de l'aéroport Southampton

Les NOTAM sont fournis sans aucune garantie de leur actualité. Le pilote est le seul responsable de la vérification de sa validité avant de l'utiliser opérationnellement pour préparer un vol ou l'utiliser lors de sa navigation.

Pas de NOTAM

Sources des données